sensor_id;sensor_type;location;lat;lon;timestamp;temperature;humidity
19252;DHT22;9760;50.944;5.304;2023-02-27T00:00:31;0.80;99.90
19252;DHT22;9760;50.944;5.304;2023-02-27T00:02:57;0.80;99.90
19252;DHT22;9760;50.944;5.304;2023-02-27T00:05:23;0.80;99.90
19252;DHT22;9760;50.944;5.304;2023-02-27T00:07:49;0.70;99.90
19252;DHT22;9760;50.944;5.304;2023-02-27T00:10:14;0.70;99.90
19252;DHT22;9760;50.944;5.304;2023-02-27T00:12:41;0.70;99.90
19252;DHT22;9760;50.944;5.304;2023-02-27T00:15:14;0.70;99.90
19252;DHT22;9760;50.944;5.304;2023-02-27T00:17:41;0.70;99.90
19252;DHT22;9760;50.944;5.304;2023-02-27T00:20:09;0.70;99.90
19252;DHT22;9760;50.944;5.304;2023-02-27T00:22:36;0.60;99.90
19252;DHT22;9760;50.944;5.304;2023-02-27T00:25:02;0.60;99.90
19252;DHT22;9760;50.944;5.304;2023-02-27T00:27:28;0.60;99.90
19252;DHT22;9760;50.944;5.304;2023-02-27T00:29:53;0.50;99.90
19252;DHT22;9760;50.944;5.304;2023-02-27T00:32:19;0.40;99.90
19252;DHT22;9760;50.944;5.304;2023-02-27T00:34:45;0.40;99.90
19252;DHT22;9760;50.944;5.304;2023-02-27T00:37:10;0.40;99.90
19252;DHT22;9760;50.944;5.304;2023-02-27T00:39:36;0.40;99.90
19252;DHT22;9760;50.944;5.304;2023-02-27T00:42:01;0.40;99.90
19252;DHT22;9760;50.944;5.304;2023-02-27T00:44:27;0.40;99.90
19252;DHT22;9760;50.944;5.304;2023-02-27T00:46:53;0.30;99.90
19252;DHT22;9760;50.944;5.304;2023-02-27T00:49:18;0.30;99.90
19252;DHT22;9760;50.944;5.304;2023-02-27T00:51:45;0.30;99.90
19252;DHT22;9760;50.944;5.304;2023-02-27T00:54:11;0.30;99.90
19252;DHT22;9760;50.944;5.304;2023-02-27T00:56:36;0.20;99.90
19252;DHT22;9760;50.944;5.304;2023-02-27T00:59:03;0.30;99.90
19252;DHT22;9760;50.944;5.304;2023-02-27T01:01:28;0.20;99.90
19252;DHT22;9760;50.944;5.304;2023-02-27T01:03:54;0.30;99.90
19252;DHT22;9760;50.944;5.304;2023-02-27T01:06:20;0.20;99.90
19252;DHT22;9760;50.944;5.304;2023-02-27T01:08:45;0.20;99.90
19252;DHT22;9760;50.944;5.304;2023-02-27T01:11:11;0.20;99.90
19252;DHT22;9760;50.944;5.304;2023-02-27T01:13:37;0.20;99.90
19252;DHT22;9760;50.944;5.304;2023-02-27T01:16:02;0.20;99.90
19252;DHT22;9760;50.944;5.304;2023-02-27T01:18:28;0.20;99.90
19252;DHT22;9760;50.944;5.304;2023-02-27T01:20:54;0.20;99.90
19252;DHT22;9760;50.944;5.304;2023-02-27T01:23:20;0.10;99.90
19252;DHT22;9760;50.944;5.304;2023-02-27T01:25:47;0.10;99.90
19252;DHT22;9760;50.944;5.304;2023-02-27T01:28:13;0.10;99.90
19252;DHT22;9760;50.944;5.304;2023-02-27T01:30:38;0.10;99.90
19252;DHT22;9760;50.944;5.304;2023-02-27T01:33:05;0.20;99.90
19252;DHT22;9760;50.944;5.304;2023-02-27T01:35:31;0.10;99.90
19252;DHT22;9760;50.944;5.304;2023-02-27T01:37:57;0.10;99.90
19252;DHT22;9760;50.944;5.304;2023-02-27T01:40:23;0.10;99.90
19252;DHT22;9760;50.944;5.304;2023-02-27T01:42:48;0.10;99.90
19252;DHT22;9760;50.944;5.304;2023-02-27T01:47:54;0.10;99.90
19252;DHT22;9760;50.944;5.304;2023-02-27T01:50:23;0.10;99.90
19252;DHT22;9760;50.944;5.304;2023-02-27T01:52:54;0.10;99.90
19252;DHT22;9760;50.944;5.304;2023-02-27T01:55:22;0.00;99.90
19252;DHT22;9760;50.944;5.304;2023-02-27T01:57:49;0.00;99.90
19252;DHT22;9760;50.944;5.304;2023-02-27T02:00:16;0.00;99.90
19252;DHT22;9760;50.944;5.304;2023-02-27T02:02:49;0.00;99.90
19252;DHT22;9760;50.944;5.304;2023-02-27T02:05:17;-0.10;99.90
19252;DHT22;9760;50.944;5.304;2023-02-27T02:07:44;-0.10;99.90
19252;DHT22;9760;50.944;5.304;2023-02-27T02:10:11;-0.10;99.90
19252;DHT22;9760;50.944;5.304;2023-02-27T02:12:39;-0.10;99.90
19252;DHT22;9760;50.944;5.304;2023-02-27T02:15:06;-0.10;99.90
19252;DHT22;9760;50.944;5.304;2023-02-27T02:23:55;-0.20;99.90
19252;DHT22;9760;50.944;5.304;2023-02-27T02:38:03;-0.20;99.90
19252;DHT22;9760;50.944;5.304;2023-02-27T02:48:42;-0.10;99.90
19252;DHT22;9760;50.944;5.304;2023-02-27T02:56:42;-0.20;99.90
19252;DHT22;9760;50.944;5.304;2023-02-27T03:02:35;-0.20;99.90
19252;DHT22;9760;50.944;5.304;2023-02-27T03:05:07;-0.30;99.90
19252;DHT22;9760;50.944;5.304;2023-02-27T03:10:21;-0.30;99.90
19252;DHT22;9760;50.944;5.304;2023-02-27T03:12:56;-0.30;99.90
19252;DHT22;9760;50.944;5.304;2023-02-27T03:15:27;-0.30;99.90
19252;DHT22;9760;50.944;5.304;2023-02-27T03:18:12;-0.30;99.90
19252;DHT22;9760;50.944;5.304;2023-02-27T03:20:47;-0.40;99.90
19252;DHT22;9760;50.944;5.304;2023-02-27T03:23:21;-0.40;99.90
19252;DHT22;9760;50.944;5.304;2023-02-27T03:25:50;-0.40;99.90
19252;DHT22;9760;50.944;5.304;2023-02-27T03:28:23;-0.40;99.90
19252;DHT22;9760;50.944;5.304;2023-02-27T03:30:55;-0.40;99.90
19252;DHT22;9760;50.944;5.304;2023-02-27T03:33:46;-0.40;99.90
19252;DHT22;9760;50.944;5.304;2023-02-27T03:47:08;-0.50;99.90
19252;DHT22;9760;50.944;5.304;2023-02-27T03:49:34;-0.50;99.90
19252;DHT22;9760;50.944;5.304;2023-02-27T03:51:59;-0.50;99.90
19252;DHT22;9760;50.944;5.304;2023-02-27T03:54:30;-0.50;99.90
19252;DHT22;9760;50.944;5.304;2023-02-27T03:57:04;-0.60;99.90
19252;DHT22;9760;50.944;5.304;2023-02-27T03:59:31;-0.60;99.90
19252;DHT22;9760;50.944;5.304;2023-02-27T04:01:58;-0.60;99.90
19252;DHT22;9760;50.944;5.304;2023-02-27T04:04:29;-0.60;99.90
19252;DHT22;9760;50.944;5.304;2023-02-27T04:10:39;-0.70;99.90
19252;DHT22;9760;50.944;5.304;2023-02-27T04:13:36;-0.60;99.90
19252;DHT22;9760;50.944;5.304;2023-02-27T04:16:38;-0.70;99.90
19252;DHT22;9760;50.944;5.304;2023-02-27T04:19:50;-0.70;99.90
19252;DHT22;9760;50.944;5.304;2023-02-27T04:25:02;-0.80;99.90
19252;DHT22;9760;50.944;5.304;2023-02-27T04:27:35;-0.80;99.90
19252;DHT22;9760;50.944;5.304;2023-02-27T04:32:35;-0.80;99.90
19252;DHT22;9760;50.944;5.304;2023-02-27T04:35:10;-0.80;99.90
19252;DHT22;9760;50.944;5.304;2023-02-27T04:37:52;-0.80;99.90
19252;DHT22;9760;50.944;5.304;2023-02-27T04:40:32;-0.80;99.90
19252;DHT22;9760;50.944;5.304;2023-02-27T04:42:59;-0.80;99.90
19252;DHT22;9760;50.944;5.304;2023-02-27T04:45:27;-0.80;99.90
19252;DHT22;9760;50.944;5.304;2023-02-27T04:48:25;-0.80;99.90
19252;DHT22;9760;50.944;5.304;2023-02-27T04:50:59;-0.80;99.90
19252;DHT22;9760;50.944;5.304;2023-02-27T04:56:27;-0.80;99.90
19252;DHT22;9760;50.944;5.304;2023-02-27T04:59:14;-0.90;99.90
19252;DHT22;9760;50.944;5.304;2023-02-27T05:01:45;-0.90;99.90
19252;DHT22;9760;50.944;5.304;2023-02-27T05:04:15;-1.00;99.90
19252;DHT22;9760;50.944;5.304;2023-02-27T05:06:43;-1.00;99.90
19252;DHT22;9760;50.944;5.304;2023-02-27T05:12:04;-1.00;99.90
19252;DHT22;9760;50.944;5.304;2023-02-27T05:14:45;-1.00;99.90
19252;DHT22;9760;50.944;5.304;2023-02-27T05:17:29;-1.00;99.90
19252;DHT22;9760;50.944;5.304;2023-02-27T05:19:56;-1.00;99.90
19252;DHT22;9760;50.944;5.304;2023-02-27T05:22:34;-1.00;99.90
19252;DHT22;9760;50.944;5.304;2023-02-27T05:25:14;-1.00;99.90
19252;DHT22;9760;50.944;5.304;2023-02-27T05:27:56;-1.00;99.90
19252;DHT22;9760;50.944;5.304;2023-02-27T05:30:36;-1.00;99.90
19252;DHT22;9760;50.944;5.304;2023-02-27T05:33:12;-1.00;99.90
19252;DHT22;9760;50.944;5.304;2023-02-27T05:38:58;-1.10;99.90
19252;DHT22;9760;50.944;5.304;2023-02-27T05:44:00;-1.10;99.90
19252;DHT22;9760;50.944;5.304;2023-02-27T05:46:31;-1.10;99.90
19252;DHT22;9760;50.944;5.304;2023-02-27T05:49:38;-1.10;99.90
19252;DHT22;9760;50.944;5.304;2023-02-27T05:51:58;-1.10;99.90
19252;DHT22;9760;50.944;5.304;2023-02-27T05:54:37;-1.20;99.90
19252;DHT22;9760;50.944;5.304;2023-02-27T05:57:09;-1.20;99.90
19252;DHT22;9760;50.944;5.304;2023-02-27T05:59:48;-1.10;99.90
19252;DHT22;9760;50.944;5.304;2023-02-27T06:02:16;-1.20;99.90
19252;DHT22;9760;50.944;5.304;2023-02-27T06:04:42;-1.20;99.90
19252;DHT22;9760;50.944;5.304;2023-02-27T06:07:07;-1.20;99.90
19252;DHT22;9760;50.944;5.304;2023-02-27T06:09:33;-1.20;99.90
19252;DHT22;9760;50.944;5.304;2023-02-27T06:12:00;-1.20;99.90
19252;DHT22;9760;50.944;5.304;2023-02-27T06:14:26;-1.20;99.90
19252;DHT22;9760;50.944;5.304;2023-02-27T06:16:52;-1.20;99.90
19252;DHT22;9760;50.944;5.304;2023-02-27T06:19:17;-1.20;99.90
19252;DHT22;9760;50.944;5.304;2023-02-27T06:21:43;-1.20;99.90
19252;DHT22;9760;50.944;5.304;2023-02-27T06:24:09;-1.30;99.90
19252;DHT22;9760;50.944;5.304;2023-02-27T06:26:34;-1.20;99.90
19252;DHT22;9760;50.944;5.304;2023-02-27T06:29:00;-1.20;99.90
19252;DHT22;9760;50.944;5.304;2023-02-27T06:31:26;-1.20;99.90
19252;DHT22;9760;50.944;5.304;2023-02-27T06:33:51;-1.20;99.90
19252;DHT22;9760;50.944;5.304;2023-02-27T06:36:17;-1.20;99.90
19252;DHT22;9760;50.944;5.304;2023-02-27T06:38:43;-1.30;99.90
19252;DHT22;9760;50.944;5.304;2023-02-27T06:41:08;-1.30;99.90
19252;DHT22;9760;50.944;5.304;2023-02-27T06:43:34;-1.30;99.90
19252;DHT22;9760;50.944;5.304;2023-02-27T06:46:01;-1.30;99.90
19252;DHT22;9760;50.944;5.304;2023-02-27T06:48:27;-1.30;99.90
19252;DHT22;9760;50.944;5.304;2023-02-27T06:50:54;-1.30;99.90
19252;DHT22;9760;50.944;5.304;2023-02-27T06:53:21;-1.30;99.90
19252;DHT22;9760;50.944;5.304;2023-02-27T06:55:47;-1.20;99.90
19252;DHT22;9760;50.944;5.304;2023-02-27T06:58:14;-1.20;99.90
19252;DHT22;9760;50.944;5.304;2023-02-27T07:00:39;-1.20;99.90
19252;DHT22;9760;50.944;5.304;2023-02-27T07:03:05;-1.20;99.90
19252;DHT22;9760;50.944;5.304;2023-02-27T07:05:31;-1.10;99.90
19252;DHT22;9760;50.944;5.304;2023-02-27T07:07:57;-1.10;99.90
19252;DHT22;9760;50.944;5.304;2023-02-27T07:10:23;-1.10;99.90
19252;DHT22;9760;50.944;5.304;2023-02-27T07:12:49;-1.00;99.90
19252;DHT22;9760;50.944;5.304;2023-02-27T07:15:15;-1.00;99.90
19252;DHT22;9760;50.944;5.304;2023-02-27T07:17:41;-0.90;99.90
19252;DHT22;9760;50.944;5.304;2023-02-27T07:20:09;-0.90;99.90
19252;DHT22;9760;50.944;5.304;2023-02-27T07:22:35;-0.80;99.90
19252;DHT22;9760;50.944;5.304;2023-02-27T07:25:02;-0.80;99.90
19252;DHT22;9760;50.944;5.304;2023-02-27T07:27:28;-0.70;99.90
19252;DHT22;9760;50.944;5.304;2023-02-27T07:29:53;-0.70;99.90
19252;DHT22;9760;50.944;5.304;2023-02-27T07:32:20;-0.60;99.90
19252;DHT22;9760;50.944;5.304;2023-02-27T07:34:46;-0.60;99.90
19252;DHT22;9760;50.944;5.304;2023-02-27T07:37:11;-0.50;99.90
19252;DHT22;9760;50.944;5.304;2023-02-27T07:39:37;-0.50;99.90
19252;DHT22;9760;50.944;5.304;2023-02-27T07:42:03;-0.40;99.90
19252;DHT22;9760;50.944;5.304;2023-02-27T07:44:28;-0.40;99.90
19252;DHT22;9760;50.944;5.304;2023-02-27T07:46:54;-0.40;99.90
19252;DHT22;9760;50.944;5.304;2023-02-27T07:49:19;-0.30;99.90
19252;DHT22;9760;50.944;5.304;2023-02-27T07:51:45;-0.30;99.90
19252;DHT22;9760;50.944;5.304;2023-02-27T07:54:11;-0.20;99.90
19252;DHT22;9760;50.944;5.304;2023-02-27T07:56:36;-0.10;99.90
19252;DHT22;9760;50.944;5.304;2023-02-27T07:59:02;-0.10;99.90
19252;DHT22;9760;50.944;5.304;2023-02-27T08:01:28;0.00;99.90
19252;DHT22;9760;50.944;5.304;2023-02-27T08:03:55;0.10;99.90
19252;DHT22;9760;50.944;5.304;2023-02-27T08:06:22;0.20;99.90
19252;DHT22;9760;50.944;5.304;2023-02-27T08:08:48;0.20;99.90
19252;DHT22;9760;50.944;5.304;2023-02-27T08:11:14;0.30;99.90
19252;DHT22;9760;50.944;5.304;2023-02-27T08:13:40;0.40;99.90
19252;DHT22;9760;50.944;5.304;2023-02-27T08:16:06;0.50;99.90
19252;DHT22;9760;50.944;5.304;2023-02-27T08:18:32;0.60;99.90
19252;DHT22;9760;50.944;5.304;2023-02-27T08:20:57;0.60;99.90
19252;DHT22;9760;50.944;5.304;2023-02-27T08:23:23;0.70;99.90
19252;DHT22;9760;50.944;5.304;2023-02-27T08:25:49;0.70;99.90
19252;DHT22;9760;50.944;5.304;2023-02-27T08:28:14;0.80;99.90
19252;DHT22;9760;50.944;5.304;2023-02-27T08:30:42;0.90;99.90
19252;DHT22;9760;50.944;5.304;2023-02-27T08:33:08;1.00;99.90
19252;DHT22;9760;50.944;5.304;2023-02-27T08:35:34;1.10;99.90
19252;DHT22;9760;50.944;5.304;2023-02-27T08:37:59;1.20;99.90
19252;DHT22;9760;50.944;5.304;2023-02-27T08:40:25;1.30;99.90
19252;DHT22;9760;50.944;5.304;2023-02-27T08:42:50;1.40;99.90
19252;DHT22;9760;50.944;5.304;2023-02-27T08:45:16;1.40;99.90
19252;DHT22;9760;50.944;5.304;2023-02-27T08:47:43;1.40;99.90
19252;DHT22;9760;50.944;5.304;2023-02-27T08:50:10;1.60;99.90
19252;DHT22;9760;50.944;5.304;2023-02-27T08:52:39;1.60;99.90
19252;DHT22;9760;50.944;5.304;2023-02-27T08:55:05;1.70;99.90
19252;DHT22;9760;50.944;5.304;2023-02-27T08:57:31;1.80;99.90
19252;DHT22;9760;50.944;5.304;2023-02-27T08:59:56;2.00;99.90
19252;DHT22;9760;50.944;5.304;2023-02-27T09:02:22;2.10;99.90
19252;DHT22;9760;50.944;5.304;2023-02-27T09:04:51;2.30;99.90
19252;DHT22;9760;50.944;5.304;2023-02-27T09:07:17;2.40;99.90
19252;DHT22;9760;50.944;5.304;2023-02-27T09:09:42;2.50;99.90
19252;DHT22;9760;50.944;5.304;2023-02-27T09:12:08;2.60;99.90
19252;DHT22;9760;50.944;5.304;2023-02-27T09:14:34;2.70;99.90
19252;DHT22;9760;50.944;5.304;2023-02-27T09:16:59;2.60;99.90
19252;DHT22;9760;50.944;5.304;2023-02-27T09:19:25;2.70;99.90
19252;DHT22;9760;50.944;5.304;2023-02-27T09:21:51;2.90;99.90
19252;DHT22;9760;50.944;5.304;2023-02-27T09:24:16;3.00;99.90
19252;DHT22;9760;50.944;5.304;2023-02-27T09:26:42;3.00;99.90
19252;DHT22;9760;50.944;5.304;2023-02-27T09:29:08;3.00;99.90
19252;DHT22;9760;50.944;5.304;2023-02-27T09:31:33;3.00;99.90
19252;DHT22;9760;50.944;5.304;2023-02-27T09:33:59;3.20;99.90
19252;DHT22;9760;50.944;5.304;2023-02-27T09:36:27;3.40;99.90
19252;DHT22;9760;50.944;5.304;2023-02-27T09:38:53;3.60;99.90
19252;DHT22;9760;50.944;5.304;2023-02-27T09:44:00;3.90;99.90
19252;DHT22;9760;50.944;5.304;2023-02-27T09:46:27;4.10;99.90
19252;DHT22;9760;50.944;5.304;2023-02-27T09:48:59;4.20;99.90
19252;DHT22;9760;50.944;5.304;2023-02-27T09:51:25;4.10;99.90
19252;DHT22;9760;50.944;5.304;2023-02-27T09:53:56;4.20;99.90
19252;DHT22;9760;50.944;5.304;2023-02-27T09:56:31;4.30;99.90
19252;DHT22;9760;50.944;5.304;2023-02-27T10:05:16;4.50;99.90
19252;DHT22;9760;50.944;5.304;2023-02-27T10:10:47;4.70;99.90
19252;DHT22;9760;50.944;5.304;2023-02-27T10:16:01;4.80;99.90
19252;DHT22;9760;50.944;5.304;2023-02-27T10:18:31;5.00;99.90
19252;DHT22;9760;50.944;5.304;2023-02-27T10:21:01;5.10;99.90
19252;DHT22;9760;50.944;5.304;2023-02-27T10:23:34;5.20;99.90
19252;DHT22;9760;50.944;5.304;2023-02-27T10:26:02;5.50;99.90
19252;DHT22;9760;50.944;5.304;2023-02-27T10:28:29;5.80;99.90
19252;DHT22;9760;50.944;5.304;2023-02-27T10:30:57;6.10;99.90
19252;DHT22;9760;50.944;5.304;2023-02-27T10:35:50;6.90;99.90
19252;DHT22;9760;50.944;5.304;2023-02-27T10:40:55;6.90;99.90
19252;DHT22;9760;50.944;5.304;2023-02-27T10:43:21;6.80;99.90
19252;DHT22;9760;50.944;5.304;2023-02-27T10:45:47;6.60;99.90
19252;DHT22;9760;50.944;5.304;2023-02-27T10:48:13;6.50;99.90
19252;DHT22;9760;50.944;5.304;2023-02-27T10:50:42;6.40;99.90
19252;DHT22;9760;50.944;5.304;2023-02-27T10:53:24;6.60;99.90
19252;DHT22;9760;50.944;5.304;2023-02-27T10:56:05;6.70;99.90
19252;DHT22;9760;50.944;5.304;2023-02-27T10:58:36;7.30;99.90
19252;DHT22;9760;50.944;5.304;2023-02-27T11:01:08;7.90;99.90
19252;DHT22;9760;50.944;5.304;2023-02-27T11:03:39;8.30;99.90
19252;DHT22;9760;50.944;5.304;2023-02-27T11:06:11;8.80;99.90
19252;DHT22;9760;50.944;5.304;2023-02-27T11:08:37;8.70;99.90
19252;DHT22;9760;50.944;5.304;2023-02-27T11:13:33;8.50;99.90
19252;DHT22;9760;50.944;5.304;2023-02-27T11:16:15;8.60;99.90
19252;DHT22;9760;50.944;5.304;2023-02-27T11:18:46;8.70;99.90
19252;DHT22;9760;50.944;5.304;2023-02-27T11:21:28;8.60;99.90
19252;DHT22;9760;50.944;5.304;2023-02-27T11:24:05;8.50;99.90
19252;DHT22;9760;50.944;5.304;2023-02-27T11:26:37;8.00;99.90
19252;DHT22;9760;50.944;5.304;2023-02-27T11:29:17;7.30;99.90
19252;DHT22;9760;50.944;5.304;2023-02-27T11:31:51;6.70;99.90
19252;DHT22;9760;50.944;5.304;2023-02-27T11:34:51;5.90;99.90
19252;DHT22;9760;50.944;5.304;2023-02-27T11:37:32;5.50;99.90
19252;DHT22;9760;50.944;5.304;2023-02-27T11:47:48;5.50;99.90
19252;DHT22;9760;50.944;5.304;2023-02-27T11:53:30;5.40;99.90
19252;DHT22;9760;50.944;5.304;2023-02-27T11:55:49;5.50;99.90
19252;DHT22;9760;50.944;5.304;2023-02-27T11:58:20;5.40;99.90
19252;DHT22;9760;50.944;5.304;2023-02-27T12:01:05;5.40;99.90
19252;DHT22;9760;50.944;5.304;2023-02-27T12:03:57;5.40;99.90
19252;DHT22;9760;50.944;5.304;2023-02-27T12:06:30;5.40;99.90
19252;DHT22;9760;50.944;5.304;2023-02-27T12:09:22;5.30;99.90
19252;DHT22;9760;50.944;5.304;2023-02-27T12:11:50;5.20;99.90
19252;DHT22;9760;50.944;5.304;2023-02-27T12:17:14;5.30;99.90
19252;DHT22;9760;50.944;5.304;2023-02-27T12:20:13;5.40;99.90
19252;DHT22;9760;50.944;5.304;2023-02-27T12:22:36;5.50;99.90
19252;DHT22;9760;50.944;5.304;2023-02-27T12:25:35;5.50;99.90
19252;DHT22;9760;50.944;5.304;2023-02-27T12:31:28;5.50;99.90
19252;DHT22;9760;50.944;5.304;2023-02-27T12:36:46;5.40;99.90
19252;DHT22;9760;50.944;5.304;2023-02-27T12:39:23;5.50;99.90
19252;DHT22;9760;50.944;5.304;2023-02-27T12:45:14;5.70;99.90
19252;DHT22;9760;50.944;5.304;2023-02-27T12:57:23;5.50;99.90
19252;DHT22;9760;50.944;5.304;2023-02-27T13:00:08;5.30;99.90
19252;DHT22;9760;50.944;5.304;2023-02-27T13:05:40;5.20;99.90
19252;DHT22;9760;50.944;5.304;2023-02-27T13:14:02;5.30;99.90
19252;DHT22;9760;50.944;5.304;2023-02-27T13:16:36;5.40;99.90
19252;DHT22;9760;50.944;5.304;2023-02-27T13:19:22;5.60;99.90
19252;DHT22;9760;50.944;5.304;2023-02-27T13:22:07;5.70;99.90
19252;DHT22;9760;50.944;5.304;2023-02-27T13:24:48;5.70;99.90
19252;DHT22;9760;50.944;5.304;2023-02-27T13:27:17;5.80;99.90
19252;DHT22;9760;50.944;5.304;2023-02-27T13:29:51;5.90;99.90
19252;DHT22;9760;50.944;5.304;2023-02-27T13:34:56;5.70;99.90
19252;DHT22;9760;50.944;5.304;2023-02-27T13:37:23;5.60;99.90
19252;DHT22;9760;50.944;5.304;2023-02-27T13:39:53;5.70;99.90
19252;DHT22;9760;50.944;5.304;2023-02-27T13:44:59;5.70;99.90
19252;DHT22;9760;50.944;5.304;2023-02-27T13:50:02;5.90;99.90
19252;DHT22;9760;50.944;5.304;2023-02-27T13:52:36;5.90;99.90
19252;DHT22;9760;50.944;5.304;2023-02-27T13:55:06;6.10;99.90
19252;DHT22;9760;50.944;5.304;2023-02-27T13:57:33;6.10;99.90
19252;DHT22;9760;50.944;5.304;2023-02-27T14:00:04;6.00;99.90
19252;DHT22;9760;50.944;5.304;2023-02-27T14:02:49;6.00;99.90
19252;DHT22;9760;50.944;5.304;2023-02-27T14:05:29;6.10;99.90
19252;DHT22;9760;50.944;5.304;2023-02-27T14:07:59;6.20;99.90
19252;DHT22;9760;50.944;5.304;2023-02-27T14:10:27;6.20;99.90
19252;DHT22;9760;50.944;5.304;2023-02-27T14:12:54;6.10;99.90
19252;DHT22;9760;50.944;5.304;2023-02-27T14:17:52;6.00;99.90
19252;DHT22;9760;50.944;5.304;2023-02-27T14:28:20;5.90;99.90
19252;DHT22;9760;50.944;5.304;2023-02-27T14:30:57;5.70;99.90
19252;DHT22;9760;50.944;5.304;2023-02-27T14:33:28;5.70;99.90
19252;DHT22;9760;50.944;5.304;2023-02-27T14:36:04;5.80;99.90
19252;DHT22;9760;50.944;5.304;2023-02-27T14:38:31;5.90;99.90
19252;DHT22;9760;50.944;5.304;2023-02-27T14:41:24;6.10;99.90
19252;DHT22;9760;50.944;5.304;2023-02-27T14:43:53;6.30;99.90
19252;DHT22;9760;50.944;5.304;2023-02-27T14:46:31;6.30;99.90
19252;DHT22;9760;50.944;5.304;2023-02-27T14:49:21;6.10;99.90
19252;DHT22;9760;50.944;5.304;2023-02-27T14:51:47;6.00;99.90
19252;DHT22;9760;50.944;5.304;2023-02-27T14:54:19;5.90;99.90
19252;DHT22;9760;50.944;5.304;2023-02-27T14:57:05;5.80;99.90
19252;DHT22;9760;50.944;5.304;2023-02-27T14:59:33;5.70;99.90
19252;DHT22;9760;50.944;5.304;2023-02-27T15:02:25;5.70;99.90
19252;DHT22;9760;50.944;5.304;2023-02-27T15:04:55;5.70;99.90
19252;DHT22;9760;50.944;5.304;2023-02-27T15:07:38;5.90;99.90
19252;DHT22;9760;50.944;5.304;2023-02-27T15:10:07;6.00;99.90
19252;DHT22;9760;50.944;5.304;2023-02-27T15:12:56;6.00;99.90
19252;DHT22;9760;50.944;5.304;2023-02-27T15:15:22;5.80;99.90
19252;DHT22;9760;50.944;5.304;2023-02-27T15:17:51;5.70;99.90
19252;DHT22;9760;50.944;5.304;2023-02-27T15:20:27;5.70;99.90
19252;DHT22;9760;50.944;5.304;2023-02-27T15:22:55;5.70;99.90
19252;DHT22;9760;50.944;5.304;2023-02-27T15:25:26;5.80;99.90
19252;DHT22;9760;50.944;5.304;2023-02-27T15:27:54;6.00;99.90
19252;DHT22;9760;50.944;5.304;2023-02-27T15:30:20;6.20;99.90
19252;DHT22;9760;50.944;5.304;2023-02-27T15:32:46;6.00;99.90
19252;DHT22;9760;50.944;5.304;2023-02-27T15:35:23;5.80;99.90
19252;DHT22;9760;50.944;5.304;2023-02-27T15:37:56;5.70;99.90
19252;DHT22;9760;50.944;5.304;2023-02-27T15:40:27;5.60;99.90
19252;DHT22;9760;50.944;5.304;2023-02-27T15:42:54;5.60;99.90
19252;DHT22;9760;50.944;5.304;2023-02-27T15:45:24;5.60;99.90
19252;DHT22;9760;50.944;5.304;2023-02-27T15:47:50;5.60;99.90
19252;DHT22;9760;50.944;5.304;2023-02-27T15:52:51;6.00;99.90
19252;DHT22;9760;50.944;5.304;2023-02-27T15:55:24;6.20;99.90
19252;DHT22;9760;50.944;5.304;2023-02-27T15:57:51;6.20;99.90
19252;DHT22;9760;50.944;5.304;2023-02-27T16:00:17;6.10;99.90
19252;DHT22;9760;50.944;5.304;2023-02-27T16:02:49;5.80;99.90
19252;DHT22;9760;50.944;5.304;2023-02-27T16:05:17;5.70;99.90
19252;DHT22;9760;50.944;5.304;2023-02-27T16:07:43;5.70;99.90
19252;DHT22;9760;50.944;5.304;2023-02-27T16:10:18;5.60;99.90
19252;DHT22;9760;50.944;5.304;2023-02-27T16:12:46;5.60;99.90
19252;DHT22;9760;50.944;5.304;2023-02-27T16:15:32;5.50;99.90
19252;DHT22;9760;50.944;5.304;2023-02-27T16:23:04;5.70;99.90
19252;DHT22;9760;50.944;5.304;2023-02-27T16:25:31;5.70;99.90
19252;DHT22;9760;50.944;5.304;2023-02-27T16:27:56;5.70;99.90
19252;DHT22;9760;50.944;5.304;2023-02-27T16:30:22;5.60;99.90
19252;DHT22;9760;50.944;5.304;2023-02-27T16:32:48;5.60;99.90
19252;DHT22;9760;50.944;5.304;2023-02-27T16:35:21;5.60;99.90
19252;DHT22;9760;50.944;5.304;2023-02-27T16:37:48;5.50;99.90
19252;DHT22;9760;50.944;5.304;2023-02-27T16:40:19;5.40;99.90
19252;DHT22;9760;50.944;5.304;2023-02-27T16:42:46;5.30;99.90
19252;DHT22;9760;50.944;5.304;2023-02-27T16:45:23;5.30;99.90
19252;DHT22;9760;50.944;5.304;2023-02-27T16:47:54;5.20;99.90
19252;DHT22;9760;50.944;5.304;2023-02-27T16:52:47;5.10;99.90
19252;DHT22;9760;50.944;5.304;2023-02-27T16:55:13;5.00;99.90
19252;DHT22;9760;50.944;5.304;2023-02-27T16:57:38;5.00;99.90
19252;DHT22;9760;50.944;5.304;2023-02-27T17:00:05;4.90;99.90
19252;DHT22;9760;50.944;5.304;2023-02-27T17:02:34;4.90;99.90
19252;DHT22;9760;50.944;5.304;2023-02-27T17:04:59;4.80;99.90
19252;DHT22;9760;50.944;5.304;2023-02-27T17:07:25;4.80;99.90
19252;DHT22;9760;50.944;5.304;2023-02-27T17:09:51;4.80;99.90
19252;DHT22;9760;50.944;5.304;2023-02-27T17:12:17;4.70;99.90
19252;DHT22;9760;50.944;5.304;2023-02-27T17:14:42;4.70;99.90
19252;DHT22;9760;50.944;5.304;2023-02-27T17:17:08;4.60;99.90
19252;DHT22;9760;50.944;5.304;2023-02-27T17:19:35;4.60;99.90
19252;DHT22;9760;50.944;5.304;2023-02-27T17:22:01;4.60;99.90
19252;DHT22;9760;50.944;5.304;2023-02-27T17:24:27;4.50;99.90
19252;DHT22;9760;50.944;5.304;2023-02-27T17:27:05;4.50;99.90
19252;DHT22;9760;50.944;5.304;2023-02-27T17:29:30;4.50;99.90
19252;DHT22;9760;50.944;5.304;2023-02-27T17:31:57;4.50;99.90
19252;DHT22;9760;50.944;5.304;2023-02-27T17:34:23;4.50;99.90
19252;DHT22;9760;50.944;5.304;2023-02-27T17:36:49;4.40;99.90
19252;DHT22;9760;50.944;5.304;2023-02-27T17:39:15;4.30;99.90
19252;DHT22;9760;50.944;5.304;2023-02-27T17:41:42;4.30;99.90
19252;DHT22;9760;50.944;5.304;2023-02-27T17:44:12;4.30;99.90
19252;DHT22;9760;50.944;5.304;2023-02-27T17:46:38;4.20;99.90
19252;DHT22;9760;50.944;5.304;2023-02-27T17:49:04;4.20;99.90
19252;DHT22;9760;50.944;5.304;2023-02-27T17:51:30;4.20;99.90
19252;DHT22;9760;50.944;5.304;2023-02-27T17:54:00;4.20;99.90
19252;DHT22;9760;50.944;5.304;2023-02-27T17:56:25;4.10;99.90
19252;DHT22;9760;50.944;5.304;2023-02-27T17:58:51;4.10;99.90
19252;DHT22;9760;50.944;5.304;2023-02-27T18:01:19;4.00;99.90
19252;DHT22;9760;50.944;5.304;2023-02-27T18:03:47;4.00;99.90
19252;DHT22;9760;50.944;5.304;2023-02-27T18:06:14;3.90;99.90
19252;DHT22;9760;50.944;5.304;2023-02-27T18:08:40;3.90;99.90
19252;DHT22;9760;50.944;5.304;2023-02-27T18:11:16;3.90;99.90
19252;DHT22;9760;50.944;5.304;2023-02-27T18:13:44;3.80;99.90
19252;DHT22;9760;50.944;5.304;2023-02-27T18:16:10;3.80;99.90
19252;DHT22;9760;50.944;5.304;2023-02-27T18:18:37;3.80;99.90
19252;DHT22;9760;50.944;5.304;2023-02-27T18:21:07;3.80;99.90
19252;DHT22;9760;50.944;5.304;2023-02-27T18:23:34;3.80;99.90
19252;DHT22;9760;50.944;5.304;2023-02-27T18:26:00;3.70;99.90
19252;DHT22;9760;50.944;5.304;2023-02-27T18:28:26;3.70;99.90
19252;DHT22;9760;50.944;5.304;2023-02-27T18:30:52;3.70;99.90
19252;DHT22;9760;50.944;5.304;2023-02-27T18:33:18;3.50;99.90
19252;DHT22;9760;50.944;5.304;2023-02-27T18:35:44;3.50;99.90
19252;DHT22;9760;50.944;5.304;2023-02-27T18:38:10;3.40;99.90
19252;DHT22;9760;50.944;5.304;2023-02-27T18:40:36;3.40;99.90
19252;DHT22;9760;50.944;5.304;2023-02-27T18:43:01;3.30;99.90
19252;DHT22;9760;50.944;5.304;2023-02-27T18:45:27;3.30;99.90
19252;DHT22;9760;50.944;5.304;2023-02-27T18:47:54;3.20;99.90
19252;DHT22;9760;50.944;5.304;2023-02-27T18:50:20;3.20;99.90
19252;DHT22;9760;50.944;5.304;2023-02-27T18:52:46;3.20;99.90
19252;DHT22;9760;50.944;5.304;2023-02-27T18:55:13;3.20;99.90
19252;DHT22;9760;50.944;5.304;2023-02-27T18:57:39;3.10;99.90